Terminal Aerodrome Forecast
Issued by NWS

Home | Current Version | Previous Version | Text Only | Print | Product List | Glossary On
Versions: 1 2 3 4 5 6 7 8 9 10 11 12 13 14
000
FTUS45 KVEF 011700
TAFEED
TAF
KEED 011739Z 0118/0218 VRB06KT P6SM BKN070 OVC100
     FM011900 17005KT P6SM VCSH SCT030 OVC050
     FM020200 36004KT P6SM -RA SCT030 OVC050
      TEMPO 0202/0206 4SM RA BR SCT020 OVC040
     FM020600 26004KT P6SM -RA SCT030 OVC050
      TEMPO 0206/0210 4SM RA BR SCT020 OVC040=

USA.gov is the U.S. government's official web portal to all federal, state and local government web resources and services.